Time;durP1;ratioP1;P1;durP2;ratioP2;P2;SDS_P1;SDS_P2;PMS_P1;PMS_P2;Temp;Humidity;BMP_temperature;BMP_pressure;BME280_temperature;BME280_humidity;BME280_pressure;Samples;Min_cycle;Max_cycle;Signal;HPM_P1;HPM_P2
2022/06/02 00:02:02;;;;;;;;;;;;;;;21.01;51.16;101139.03;4963203;28;5493;-60
2022/06/02 00:04:35;;;;;;;;;;;;;;;21.01;51.08;101136.16;4963141;28;4066;-60
2022/06/02 00:07:13;;;;;;;;;;;;;;;21.00;51.09;101131.78;4976179;28;4421;-60
2022/06/02 00:09:44;;;;;;;;;;;;;;;20.99;51.25;101148.31;4955068;28;4241;-60
2022/06/02 00:12:11;;;;;;;;;;;;;;;20.99;51.17;101147.56;4954379;28;5530;-60
2022/06/02 00:14:45;;;;;;;;;;;;;;;21.00;51.15;101137.53;4963964;28;4249;-60
2022/06/02 00:17:31;;;;;;;;;;;;;;;20.99;51.14;101144.69;4956255;28;4208;-60
2022/06/02 00:20:09;;;;;;;;;;;;;;;20.99;51.17;101144.69;4966334;28;4383;-60
2022/06/02 00:22:38;;;;;;;;;;;;;;;20.98;51.31;101143.19;4962603;28;4386;-60
2022/06/02 00:25:23;;;;;;;;;;;;;;;20.98;51.20;101143.19;4966372;28;4211;-60
2022/06/02 00:27:51;;;;;;;;;;;;;;;20.97;51.18;101139.56;4962737;28;4204;-60
2022/06/02 00:30:36;;;;;;;;;;;;;;;20.97;51.17;101148.22;4964597;28;4511;-59
2022/06/02 00:33:25;;;;;;;;;;;;;;;20.98;51.28;101140.31;4963912;28;4297;-60
2022/06/02 00:35:52;;;;;;;;;;;;;;;20.97;51.21;101148.22;4963270;28;4220;-60
2022/06/02 00:38:22;;;;;;;;;;;;;;;20.96;51.29;101145.97;4965737;28;5303;-60
2022/06/02 00:40:48;;;;;;;;;;;;;;;20.97;51.33;101159.00;4962439;28;4179;-60
2022/06/02 00:43:30;;;;;;;;;;;;;;;20.96;51.22;101151.72;4960155;28;4144;-60
2022/06/02 00:46:05;;;;;;;;;;;;;;;20.95;51.23;101159.63;4965624;28;4206;-60
2022/06/02 00:48:45;;;;;;;;;;;;;;;20.95;51.28;101156.75;4958465;28;4368;-60
2022/06/02 00:51:11;;;;;;;;;;;;;;;20.95;51.32;101162.50;4958225;28;4169;-60
2022/06/02 00:53:42;;;;;;;;;;;;;;;20.95;51.24;101167.53;4955201;28;4258;-60
2022/06/02 00:59:12;;;;;;;;;;;;;;;20.95;51.17;101179.03;4922519;29;4175;-60
2022/06/02 01:01:38;;;;;;;;;;;;;;;20.95;51.28;101176.16;4926834;28;4221;-60
2022/06/02 01:04:05;;;;;;;;;;;;;;;20.94;51.28;101178.31;4924308;28;5149;-60
2022/06/02 01:06:35;;;;;;;;;;;;;;;20.93;51.33;101186.16;4926610;28;4248;-60
2022/06/02 01:09:20;;;;;;;;;;;;;;;20.93;51.12;101188.31;4921129;28;4217;-61
2022/06/02 01:12:05;;;;;;;;;;;;;;;20.92;51.24;101181.81;4926213;28;4272;-60
2022/06/02 01:14:41;;;;;;;;;;;;;;;20.92;51.26;101190.44;4926145;28;4191;-60
2022/06/02 01:17:28;;;;;;;;;;;;;;;20.92;51.12;101193.31;4925490;28;5375;-60
2022/06/02 01:19:57;;;;;;;;;;;;;;;20.92;51.12;101187.56;4910009;28;4130;-60
2022/06/02 01:22:36;;;;;;;;;;;;;;;20.91;51.11;101191.09;4927640;28;5456;-60
2022/06/02 01:25:05;;;;;;;;;;;;;;;20.91;51.11;101188.97;4924637;28;4367;-60
2022/06/02 01:27:50;;;;;;;;;;;;;;;20.91;51.00;101200.50;4917925;28;4234;-60
2022/06/02 01:30:29;;;;;;;;;;;;;;;20.90;51.12;101193.22;4915510;28;4324;-60
2022/06/02 01:32:58;;;;;;;;;;;;;;;20.90;51.26;101196.09;4920751;28;4111;-60
2022/06/02 01:35:44;;;;;;;;;;;;;;;20.90;51.21;101195.38;4924139;29;4221;-60
2022/06/02 01:38:34;;;;;;;;;;;;;;;20.88;51.17;101198.88;4927969;28;4488;-60
2022/06/02 01:41:13;;;;;;;;;;;;;;;20.90;51.12;101201.84;4933382;28;4345;-60
2022/06/02 01:43:44;;;;;;;;;;;;;;;20.89;51.09;101194.63;4922847;28;4186;-60
2022/06/02 01:46:14;;;;;;;;;;;;;;;20.89;51.23;101200.38;4917143;29;4384;-60
2022/06/02 01:49:02;;;;;;;;;;;;;;;20.89;51.05;101205.38;4924308;28;4279;-60
2022/06/02 01:51:34;;;;;;;;;;;;;;;20.89;50.97;101202.50;4917137;29;5272;-60
2022/06/02 01:54:03;;;;;;;;;;;;;;;20.88;51.08;101207.50;4922086;28;4216;-60
2022/06/02 01:56:35;;;;;;;;;;;;;;;20.89;51.08;101211.13;4927596;28;4236;-60
2022/06/02 01:59:06;;;;;;;;;;;;;;;20.88;51.13;101215.41;4957346;28;4191;-60
2022/06/02 02:01:45;;;;;;;;;;;;;;;20.87;51.01;101208.91;4960519;28;4425;-60
2022/06/02 02:04:30;;;;;;;;;;;;;;;20.87;51.02;101214.66;4958859;28;4179;-60
2022/06/02 02:07:04;;;;;;;;;;;;;;;20.86;51.00;101218.94;4966136;28;5268;-60
2022/06/02 02:09:44;;;;;;;;;;;;;;;20.86;51.05;101224.69;4962381;28;4255;-60
2022/06/02 02:12:15;;;;;;;;;;;;;;;20.86;51.13;101224.69;4962224;28;4169;-60
2022/06/02 02:14:51;;;;;;;;;;;;;;;20.86;51.14;101223.94;4964936;28;5403;-59
2022/06/02 02:17:27;;;;;;;;;;;;;;;20.86;51.10;101226.81;4956284;28;4960;-60
2022/06/02 02:19:58;;;;;;;;;;;;;;;20.85;50.95;101234.72;4957973;28;4128;-60
2022/06/02 02:22:36;;;;;;;;;;;;;;;20.84;51.08;101230.34;4955326;28;4103;-59
2022/06/02 02:25:13;;;;;;;;;;;;;;;20.85;51.04;101236.84;4953050;28;5692;-60
2022/06/02 02:28:12;;;;;;;;;;;;;;;20.84;50.93;101233.22;4978377;28;4172;-60
2022/06/02 02:30:44;;;;;;;;;;;;;;;20.83;51.12;101236.75;4959611;28;4308;-60
2022/06/02 02:33:14;;;;;;;;;;;;;;;20.83;51.05;101233.88;4962871;28;4273;-60
2022/06/02 02:36:00;;;;;;;;;;;;;;;20.83;51.08;101236.75;4965029;28;4233;-60
2022/06/02 02:38:35;;;;;;;;;;;;;;;20.82;51.06;101238.88;4951358;28;4209;-60
2022/06/02 02:41:02;;;;;;;;;;;;;;;20.82;51.02;101243.88;4951938;28;4174;-60
2022/06/02 02:43:49;;;;;;;;;;;;;;;20.82;51.00;101241.78;4960753;28;5434;-60
2022/06/02 02:46:15;;;;;;;;;;;;;;;20.81;51.12;101234.50;4962452;28;5370;-60
2022/06/02 02:48:51;;;;;;;;;;;;;;;20.81;50.75;101237.38;4962501;28;4583;-62
2022/06/02 02:51:17;;;;;;;;;;;;;;;20.80;51.02;101235.16;4959424;28;4178;-60
2022/06/02 02:53:45;;;;;;;;;;;;;;;20.80;51.01;101235.91;4969936;28;5367;-60
2022/06/02 02:56:23;;;;;;;;;;;;;;;20.79;51.02;101237.28;4959585;28;4271;-60
2022/06/02 02:59:22;;;;;;;;;;;;;;;20.80;50.98;101247.41;4956898;28;4620;-60
2022/06/02 03:01:51;;;;;;;;;;;;;;;20.79;51.06;101239.41;4941091;28;4267;-60
2022/06/02 03:04:36;;;;;;;;;;;;;;;20.78;51.06;101244.44;4969731;28;4185;-60
2022/06/02 03:07:02;;;;;;;;;;;;;;;20.78;50.95;101247.31;4964388;28;4203;-60
2022/06/02 03:09:42;;;;;;;;;;;;;;;20.78;50.93;101253.06;4966873;28;4203;-60
2022/06/02 03:12:18;;;;;;;;;;;;;;;20.78;50.94;101246.56;4962820;28;4309;-60
2022/06/02 03:15:00;;;;;;;;;;;;;;;20.77;50.93;101260.19;4958647;28;4178;-60
2022/06/02 03:17:33;;;;;;;;;;;;;;;20.76;51.00;101261.59;4962774;28;5429;-60
2022/06/02 03:20:08;;;;;;;;;;;;;;;20.77;51.03;101268.84;4966922;28;4232;-60
2022/06/02 03:22:41;;;;;;;;;;;;;;;20.76;51.04;101276.00;4962476;28;5323;-60
2022/06/02 03:25:15;;;;;;;;;;;;;;;20.77;50.95;101279.59;4960821;28;4163;-60
2022/06/02 03:27:47;;;;;;;;;;;;;;;20.76;51.04;101276.00;4958519;28;5478;-60
2022/06/02 03:30:18;;;;;;;;;;;;;;;20.76;50.97;101296.13;4952592;28;5312;-60
2022/06/02 03:32:49;;;;;;;;;;;;;;;20.75;50.95;101283.13;4968063;28;4550;-61
2022/06/02 03:35:16;;;;;;;;;;;;;;;20.76;51.04;101298.28;4968617;28;4280;-60
2022/06/02 03:37:51;;;;;;;;;;;;;;;20.75;51.07;101293.88;4963477;28;4272;-62
2022/06/02 03:40:26;;;;;;;;;;;;;;;20.74;51.06;101290.28;4968745;28;4145;-60
2022/06/02 03:43:11;;;;;;;;;;;;;;;20.74;51.08;101298.91;4964202;28;4222;-60
2022/06/02 03:45:38;;;;;;;;;;;;;;;20.74;51.04;101303.91;4962590;28;5415;-60
2022/06/02 03:48:23;;;;;;;;;;;;;;;20.73;51.05;101291.66;4964188;28;5292;-60
2022/06/02 03:50:59;;;;;;;;;;;;;;;20.73;50.93;101303.19;4962384;28;4145;-60
2022/06/02 03:53:34;;;;;;;;;;;;;;;20.71;51.01;101308.81;4956363;28;4227;-60
2022/06/02 03:56:19;;;;;;;;;;;;;;;20.73;51.00;101314.69;4958359;28;4174;-60
2022/06/02 03:58:56;;;;;;;;;;;;;;;20.72;51.11;101318.94;4966397;28;5380;-60
2022/06/02 04:01:24;;;;;;;;;;;;;;;20.71;51.05;101309.56;4957643;28;4253;-60
2022/06/02 04:04:00;;;;;;;;;;;;;;;20.70;51.04;101316.69;4965792;28;5327;-60
2022/06/02 04:06:35;;;;;;;;;;;;;;;20.71;51.04;101323.22;4964192;28;4237;-60
2022/06/02 04:09:07;;;;;;;;;;;;;;;20.71;51.07;101328.97;4973903;28;4234;-60
2022/06/02 04:14:29;;;;;;;;;;;;;;;20.70;51.07;101327.47;4977572;28;5248;-60
2022/06/02 04:17:26;;;;;;;;;;;;;;;20.70;51.07;101333.97;4955724;28;4215;-60
2022/06/02 04:23:15;;;;;;;;;;;;;;;20.69;51.05;101343.25;4966928;28;4288;-60
2022/06/02 04:25:44;;;;;;;;;;;;;;;20.69;51.05;101349.00;4963670;28;5306;-60
2022/06/02 04:28:17;;;;;;;;;;;;;;;20.67;51.14;101346.03;4961055;28;5057;-60
2022/06/02 04:31:00;;;;;;;;;;;;;;;20.68;51.19;101350.38;4963265;28;6319;-60
2022/06/02 04:33:32;;;;;;;;;;;;;;;20.67;51.04;101346.75;4960201;28;4111;-61
2022/06/02 04:36:10;;;;;;;;;;;;;;;20.67;51.04;101351.78;4964033;28;4221;-60
2022/06/02 04:38:42;;;;;;;;;;;;;;;20.68;51.09;101353.25;4959364;28;4201;-60
2022/06/02 04:41:15;;;;;;;;;;;;;;;20.68;51.04;101353.25;4960370;28;4278;-60
2022/06/02 04:43:47;;;;;;;;;;;;;;;20.67;51.00;101348.91;4959121;28;4193;-60
2022/06/02 04:46:19;;;;;;;;;;;;;;;20.66;51.16;101353.91;4957855;28;4223;-60
2022/06/02 04:48:53;;;;;;;;;;;;;;;20.66;51.16;101358.91;4962009;28;4225;-59
2022/06/02 04:51:25;;;;;;;;;;;;;;;20.66;51.17;101356.03;4962211;28;4515;-59
2022/06/02 04:53:57;;;;;;;;;;;;;;;20.65;51.10;101355.28;4960635;28;4233;-60
2022/06/02 04:56:42;;;;;;;;;;;;;;;20.65;51.22;101366.06;4958348;28;4229;-60
2022/06/02 04:59:30;;;;;;;;;;;;;;;20.66;51.17;101367.53;4960852;28;5273;-60
2022/06/02 05:02:07;;;;;;;;;;;;;;;20.65;51.21;101360.31;4965299;28;4223;-60
2022/06/02 05:04:37;;;;;;;;;;;;;;;20.65;51.24;101366.06;4960401;28;4089;-60
2022/06/02 05:07:12;;;;;;;;;;;;;;;20.66;51.12;101367.53;4961527;28;4177;-62
2022/06/02 05:09:46;;;;;;;;;;;;;;;20.67;51.43;101375.53;4959000;28;4060;-68
2022/06/02 05:12:17;;;;;;;;;;;;;;;20.64;50.93;101376.81;4951878;28;4213;-68
2022/06/02 05:15:01;;;;;;;;;;;;;;;20.51;50.92;101366.75;4953671;28;4040;-70
2022/06/02 05:17:32;;;;;;;;;;;;;;;20.58;50.87;101382.25;4954918;28;4561;-62
2022/06/02 05:20:12;;;;;;;;;;;;;;;20.61;50.87;101383.09;4945967;28;4275;-70
2022/06/02 05:22:52;;;;;;;;;;;;;;;20.62;50.76;101382.47;4957920;28;4248;-68
2022/06/02 05:25:18;;;;;;;;;;;;;;;20.63;51.76;101391.84;4959207;28;4138;-68
2022/06/02 05:28:00;;;;;;;;;;;;;;;20.64;51.97;101388.34;4961205;28;4185;-68
2022/06/02 05:30:26;;;;;;;;;;;;;;;20.65;51.92;101401.31;4959553;28;4852;-69
2022/06/02 05:33:01;;;;;;;;;;;;;;;20.63;52.35;101400.47;4960596;28;4079;-69
2022/06/02 05:35:34;;;;;;;;;;;;;;;20.62;52.31;101408.38;4955493;28;4244;-69
2022/06/02 05:38:03;;;;;;;;;;;;;;;20.63;52.16;101403.34;4956187;28;4186;-69
2022/06/02 05:40:31;;;;;;;;;;;;;;;20.62;52.61;101413.38;4955965;28;4185;-69
2022/06/02 05:43:03;;;;;;;;;;;;;;;20.63;52.44;101427.13;4953559;28;5519;-69
2022/06/02 05:45:42;;;;;;;;;;;;;;;20.61;52.71;101426.25;4958688;28;4185;-69
2022/06/02 05:48:21;;;;;;;;;;;;;;;20.63;52.62;101429.25;4954943;28;4241;-69
2022/06/02 05:50:52;;;;;;;;;;;;;;;20.56;52.68;101424.53;4959680;28;4339;-68
2022/06/02 05:53:28;;;;;;;;;;;;;;;20.59;52.54;101426.16;4971318;28;4130;-60
2022/06/02 05:56:03;;;;;;;;;;;;;;;20.73;53.85;101424.06;4955301;28;4246;-70
2022/06/02 05:58:49;;;;;;;;;;;;;;;20.84;52.69;101428.94;4957367;28;4123;-67
2022/06/02 06:01:23;;;;;;;;;;;;;;;20.90;51.80;101432.16;4967922;28;4051;-68
2022/06/02 06:04:04;;;;;;;;;;;;;;;20.93;51.38;101433.75;4960098;28;4208;-71
2022/06/02 06:06:31;;;;;;;;;;;;;;;21.00;50.97;101439.84;4955528;28;4417;-73
2022/06/02 06:09:02;;;;;;;;;;;;;;;21.05;50.67;101436.56;4957060;28;4180;-70
2022/06/02 06:11:41;;;;;;;;;;;;;;;21.09;50.66;101438.88;4951721;28;4180;-72
2022/06/02 06:14:13;;;;;;;;;;;;;;;21.09;50.32;101441.75;4967779;28;4189;-66
2022/06/02 06:16:48;;;;;;;;;;;;;;;21.10;50.40;101441.13;4950467;28;4160;-62
2022/06/02 06:19:25;;;;;;;;;;;;;;;21.00;50.46;101443.47;4957003;28;4369;-79
2022/06/02 06:22:35;;;;;;;;;;;;;;;20.86;49.62;101437.69;4957427;28;4861;-71
2022/06/02 06:25:49;;;;;;;;;;;;;;;20.63;49.84;101447.25;4965299;28;4220;-70
2022/06/02 06:28:16;;;;;;;;;;;;;;;20.69;50.06;101452.63;4962791;28;4200;-71
2022/06/02 06:30:48;;;;;;;;;;;;;;;20.72;50.26;101462.84;4959611;28;4207;-65
2022/06/02 06:33:23;;;;;;;;;;;;;;;20.74;50.35;101462.94;4963323;28;4254;-65
2022/06/02 06:36:00;;;;;;;;;;;;;;;20.79;50.75;101461.78;4955353;28;4286;-65
2022/06/02 06:38:58;;;;;;;;;;;;;;;20.84;50.39;101469.25;4960511;28;4191;-65
2022/06/02 06:41:46;;;;;;;;;;;;;;;20.86;50.38;101472.25;4936329;28;4112;-65
2022/06/02 06:44:32;;;;;;;;;;;;;;;20.82;50.38;101472.03;4958982;28;4165;-65
2022/06/02 06:47:02;;;;;;;;;;;;;;;20.83;50.41;101479.28;4960609;28;4257;-65
2022/06/02 06:49:33;;;;;;;;;;;;;;;20.85;50.55;101470.75;4956351;28;4156;-65
2022/06/02 06:52:17;;;;;;;;;;;;;;;20.86;50.53;101478.00;4965152;28;4273;-65
2022/06/02 06:55:00;;;;;;;;;;;;;;;20.89;50.53;101476.75;4965237;28;4571;-65
2022/06/02 06:57:52;;;;;;;;;;;;;;;20.91;50.36;101476.84;4957480;28;4454;-65
2022/06/02 07:00:19;;;;;;;;;;;;;;;20.91;50.37;101485.50;4963422;28;4076;-66
2022/06/02 07:02:53;;;;;;;;;;;;;;;20.91;50.31;101485.50;4959452;28;4272;-65
2022/06/02 07:05:31;;;;;;;;;;;;;;;20.93;50.39;101481.94;4955559;28;4321;-65
2022/06/02 07:08:16;;;;;;;;;;;;;;;20.93;50.39;101488.44;4958961;28;4098;-65
2022/06/02 07:10:51;;;;;;;;;;;;;;;20.91;50.41;101482.59;4960521;28;5324;-64
2022/06/02 07:13:37;;;;;;;;;;;;;;;20.91;50.53;101485.50;4980156;28;5301;-64
2022/06/02 07:16:22;;;;;;;;;;;;;;;20.92;50.43;101486.22;4955007;28;4188;-64
2022/06/02 07:18:52;;;;;;;;;;;;;;;20.91;50.56;101494.13;4954093;28;5455;-64
2022/06/02 07:21:22;;;;;;;;;;;;;;;20.91;50.49;101490.47;4977702;28;4088;-64
2022/06/02 07:23:55;;;;;;;;;;;;;;;20.90;50.43;101489.00;4959818;28;4246;-64
2022/06/02 07:26:41;;;;;;;;;;;;;;;20.89;50.51;101499.78;4957335;28;4176;-64
2022/06/02 07:29:15;;;;;;;;;;;;;;;20.89;50.57;101502.66;4979116;28;4049;-64
2022/06/02 07:31:53;;;;;;;;;;;;;;;20.88;50.60;101504.03;4968756;28;4114;-64
2022/06/02 07:34:26;;;;;;;;;;;;;;;20.88;50.57;101504.03;4980655;28;4017;-69
2022/06/02 07:36:55;;;;;;;;;;;;;;;20.88;50.64;101504.03;4965320;28;4150;-69
2022/06/02 07:39:26;;;;;;;;;;;;;;;20.89;50.75;101505.53;4969005;28;3984;-69
2022/06/02 07:41:56;;;;;;;;;;;;;;;20.88;50.66;101509.78;4961550;28;4125;-69
2022/06/02 07:44:41;;;;;;;;;;;;;;;20.88;50.69;101512.66;4968957;28;4441;-66
2022/06/02 07:47:29;;;;;;;;;;;;;;;20.89;50.71;101511.28;4959091;28;4511;-64
2022/06/02 07:50:01;;;;;;;;;;;;;;;20.83;49.73;101505.19;4950609;28;4622;-63
2022/06/02 07:52:30;;;;;;;;;;;;;;;20.67;49.06;101507.19;4974154;28;4270;-68
2022/06/02 07:55:00;;;;;;;;;;;;;;;20.80;49.60;101508.59;4951554;28;4167;-66
2022/06/02 07:57:37;;;;;;;;;;;;;;;21.00;49.54;101521.19;4977074;28;4134;-66
2022/06/02 08:00:06;;;;;;;;;;;;;;;21.10;49.40;101518.16;4978362;28;4217;-68
2022/06/02 08:02:47;;;;;;;;;;;;;;;21.16;49.03;101526.34;4957938;28;4306;-68
2022/06/02 08:05:22;;;;;;;;;;;;;;;21.21;48.83;101525.94;4975113;28;4406;-68
2022/06/02 08:07:51;;;;;;;;;;;;;;;21.20;49.08;101521.56;4958192;28;4208;-66
2022/06/02 08:10:24;;;;;;;;;;;;;;;21.20;49.11;101533.06;4965586;28;4272;-73
2022/06/02 08:13:09;;;;;;;;;;;;;;;21.24;49.10;101539.06;4963130;28;4264;-67
2022/06/02 08:15:41;;;;;;;;;;;;;;;21.23;48.61;101543.31;4962150;28;4256;-65
2022/06/02 08:18:21;;;;;;;;;;;;;;;21.21;47.93;101546.09;4959807;28;4095;-66
2022/06/02 08:21:15;;;;;;;;;;;;;;;21.18;45.83;101540.88;4959693;28;4272;-64
2022/06/02 08:23:45;;;;;;;;;;;;;;;21.09;43.77;101540.41;4953064;28;6238;-66
2022/06/02 08:26:16;;;;;;;;;;;;;;;21.09;42.97;101549.06;4960485;28;5474;-68
2022/06/02 08:28:47;;;;;;;;;;;;;;;21.15;43.00;101553.66;4960062;28;4215;-67
2022/06/02 08:31:15;;;;;;;;;;;;;;;21.20;43.49;101550.34;4957667;28;5278;-68
2022/06/02 08:33:49;;;;;;;;;;;;;;;21.08;44.50;101561.22;4960088;28;4172;-68
2022/06/02 08:36:16;;;;;;;;;;;;;;;21.01;45.02;101562.28;4952816;28;4230;-73
2022/06/02 08:38:49;;;;;;;;;;;;;;;20.98;45.28;101567.19;4954446;28;4325;-73
2022/06/02 08:41:34;;;;;;;;;;;;;;;20.93;45.86;101569.06;4975414;28;4256;-73
2022/06/02 08:44:20;;;;;;;;;;;;;;;21.01;46.49;101568.78;4963514;28;5515;-67
2022/06/02 08:46:49;;;;;;;;;;;;;;;21.30;46.53;101559.56;4956240;28;4192;-60
2022/06/02 08:49:24;;;;;;;;;;;;;;;21.39;46.64;101571.50;4961069;28;4393;-61
2022/06/02 08:52:05;;;;;;;;;;;;;;;21.54;46.46;101560.13;4964139;28;5387;-61
2022/06/02 08:54:51;;;;;;;;;;;;;;;21.59;46.40;101555.31;4956418;28;4580;-63
2022/06/02 08:57:25;;;;;;;;;;;;;;;21.31;46.27;101552.41;4963832;28;4225;-65
2022/06/02 08:59:57;;;;;;;;;;;;;;;21.16;46.62;101558.78;4978233;28;5557;-66
2022/06/02 09:02:37;;;;;;;;;;;;;;;21.09;46.97;101563.44;4952277;28;4027;-65
2022/06/02 09:05:06;;;;;;;;;;;;;;;21.05;47.05;101550.97;4951876;28;4109;-63
2022/06/02 09:07:57;;;;;;;;;;;;;;;21.02;47.13;101566.66;4960195;28;6420;-61
2022/06/02 09:10:29;;;;;;;;;;;;;;;21.00;47.33;101560.78;4959750;28;4185;-60
2022/06/02 09:12:58;;;;;;;;;;;;;;;20.99;47.63;101568.66;4959759;28;5304;-63
2022/06/02 09:15:46;;;;;;;;;;;;;;;20.99;47.71;101565.78;4959769;28;4253;-63
2022/06/02 09:18:12;;;;;;;;;;;;;;;20.99;47.88;101565.03;4962951;28;4068;-63
2022/06/02 09:20:50;;;;;;;;;;;;;;;20.98;48.02;101572.19;4960952;28;4258;-67
2022/06/02 09:23:16;;;;;;;;;;;;;;;20.96;48.08;101566.31;4955029;28;4204;-66
2022/06/02 09:25:49;;;;;;;;;;;;;;;20.97;48.05;101564.94;4958082;28;5271;-66
2022/06/02 09:28:21;;;;;;;;;;;;;;;20.95;48.16;101571.31;4955251;28;4184;-66
2022/06/02 09:31:00;;;;;;;;;;;;;;;20.96;48.24;101566.31;4958703;28;4296;-61
2022/06/02 09:33:37;;;;;;;;;;;;;;;20.93;48.12;101563.31;4949040;28;4167;-61
2022/06/02 09:36:23;;;;;;;;;;;;;;;20.97;47.97;101574.31;4959584;28;4044;-59
2022/06/02 09:39:08;;;;;;;;;;;;;;;21.21;47.89;101566.28;4966515;28;4359;-60
2022/06/02 09:41:34;;;;;;;;;;;;;;;21.33;47.69;101561.16;4959881;28;4169;-60
2022/06/02 09:44:15;;;;;;;;;;;;;;;21.39;47.55;101571.50;4958836;28;4239;-61
2022/06/02 09:46:46;;;;;;;;;;;;;;;21.47;47.75;101578.47;4949612;28;4256;-60
2022/06/02 09:49:35;;;;;;;;;;;;;;;21.53;47.77;101578.81;4961458;28;5391;-59
2022/06/02 09:52:24;;;;;;;;;;;;;;;21.63;47.23;101560.56;4957322;28;4202;-62
2022/06/02 09:55:03;;;;;;;;;;;;;;;21.50;47.08;101576.44;4944429;28;4245;-58
2022/06/02 09:57:55;;;;;;;;;;;;;;;21.46;47.16;101577.00;4957956;28;4238;-59
2022/06/02 10:00:27;;;;;;;;;;;;;;;21.46;47.54;101579.88;4954145;28;4199;-59
2022/06/02 10:03:12;;;;;;;;;;;;;;;21.45;47.79;101580.50;4957484;28;4313;-60
2022/06/02 10:05:59;;;;;;;;;;;;;;;21.47;47.81;101580.63;4963421;28;4274;-58
2022/06/02 10:08:31;;;;;;;;;;;;;;;21.49;47.79;101580.72;4947194;28;4160;-65
2022/06/02 10:11:00;;;;;;;;;;;;;;;21.53;47.54;101580.94;4960349;28;4269;-64
2022/06/02 10:13:45;;;;;;;;;;;;;;;21.50;47.58;101587.97;4960957;28;4152;-64
2022/06/02 10:16:31;;;;;;;;;;;;;;;21.52;47.69;101585.94;4960972;28;5870;-65
2022/06/02 10:19:11;;;;;;;;;;;;;;;21.53;47.53;101586.69;4959540;28;5167;-64
2022/06/02 10:21:46;;;;;;;;;;;;;;;21.49;47.49;101580.72;4954947;28;4381;-65
2022/06/02 10:24:18;;;;;;;;;;;;;;;21.54;47.77;101588.19;4952253;28;4358;-64
2022/06/02 10:26:55;;;;;;;;;;;;;;;21.59;47.72;101601.44;4952019;28;4396;-64
2022/06/02 10:29:40;;;;;;;;;;;;;;;21.61;47.67;101592.91;4974933;28;4187;-64
2022/06/02 10:32:18;;;;;;;;;;;;;;;21.59;47.62;101586.28;4956902;28;4211;-60
2022/06/02 10:34:48;;;;;;;;;;;;;;;21.56;47.77;101587.56;4955047;28;4291;-59
2022/06/02 10:37:17;;;;;;;;;;;;;;;21.61;47.84;101592.91;4957717;28;4253;-61
2022/06/02 10:39:50;;;;;;;;;;;;;;;21.66;47.82;101588.09;4961079;28;4288;-59
2022/06/02 10:42:35;;;;;;;;;;;;;;;21.68;47.75;101591.81;4965135;28;4065;-60
2022/06/02 10:45:08;;;;;;;;;;;;;;;21.67;48.01;101590.34;4957521;28;5384;-60
2022/06/02 10:47:46;;;;;;;;;;;;;;;21.71;47.96;101593.41;4953136;28;4450;-61
2022/06/02 10:50:25;;;;;;;;;;;;;;;21.71;47.90;101590.53;4954456;28;4404;-60
2022/06/02 10:52:56;;;;;;;;;;;;;;;21.74;48.00;101595.03;4963379;28;4206;-61
2022/06/02 10:55:33;;;;;;;;;;;;;;;21.69;48.11;101598.34;4955786;28;4067;-61
2022/06/02 10:58:18;;;;;;;;;;;;;;;21.66;47.97;101600.34;4956810;28;4540;-61
2022/06/02 11:01:03;;;;;;;;;;;;;;;21.66;48.28;101593.84;4961199;28;4202;-61
2022/06/02 11:03:30;;;;;;;;;;;;;;;21.65;48.51;101593.13;4957537;28;4567;-60
2022/06/02 11:06:15;;;;;;;;;;;;;;;21.67;48.23;101595.34;4955379;28;4230;-59
2022/06/02 11:08:54;;;;;;;;;;;;;;;21.73;48.09;101596.41;4960518;28;4390;-59
2022/06/02 11:11:35;;;;;;;;;;;;;;;21.71;48.33;101596.31;4959827;28;4215;-58
2022/06/02 11:14:10;;;;;;;;;;;;;;;21.69;48.35;101592.56;4967183;28;4226;-59
2022/06/02 11:16:44;;;;;;;;;;;;;;;21.69;48.75;101595.44;4978641;28;4201;-59
2022/06/02 11:19:21;;;;;;;;;;;;;;;21.67;48.42;101590.34;4965141;28;7125;-60
2022/06/02 11:21:53;;;;;;;;;;;;;;;21.69;48.54;101598.34;4963315;28;4264;-60
2022/06/02 11:24:25;;;;;;;;;;;;;;;21.75;48.45;101595.78;4957917;28;4336;-61
2022/06/02 11:26:57;;;;;;;;;;;;;;;21.79;48.29;101598.13;4955881;28;4327;-60
2022/06/02 11:29:42;;;;;;;;;;;;;;;21.78;48.15;101597.38;4967438;28;4242;-60
2022/06/02 11:32:18;;;;;;;;;;;;;;;21.75;48.43;101596.53;4964097;28;5270;-62
2022/06/02 11:34:53;;;;;;;;;;;;;;;21.78;48.23;101593.75;4963305;28;5372;-60
2022/06/02 11:37:38;;;;;;;;;;;;;;;21.77;48.21;101598.75;4957340;28;4259;-60
2022/06/02 11:40:46;;;;;;;;;;;;;;;21.78;48.43;101593.75;4962135;28;4197;-70
2022/06/02 11:43:20;;;;;;;;;;;;;;;21.64;48.57;101597.38;4954886;28;4247;-67
2022/06/02 11:46:05;;;;;;;;;;;;;;;21.77;48.01;101590.13;4960274;28;5547;-66
2022/06/02 11:48:43;;;;;;;;;;;;;;;21.85;47.40;101592.66;4962148;28;4096;-65
2022/06/02 11:51:19;;;;;;;;;;;;;;;21.81;47.05;101587.44;4953000;28;4160;-63
2022/06/02 11:54:04;;;;;;;;;;;;;;;21.76;46.52;101594.38;4962707;28;5279;-64
2022/06/02 11:56:37;;;;;;;;;;;;;;;21.78;46.40;101593.75;4958299;28;4333;-65
2022/06/02 11:59:21;;;;;;;;;;;;;;;21.77;45.36;101595.16;4961014;28;4240;-64
2022/06/02 12:01:53;;;;;;;;;;;;;;;21.79;44.95;101593.09;4955445;28;4257;-64
2022/06/02 12:04:23;;;;;;;;;;;;;;;21.79;44.97;101589.50;4956330;28;4239;-63
2022/06/02 12:07:09;;;;;;;;;;;;;;;21.65;44.27;101590.22;4956323;28;4131;-65
2022/06/02 12:09:43;;;;;;;;;;;;;;;21.49;43.28;101586.50;4951609;28;4262;-63
2022/06/02 12:12:41;;;;;;;;;;;;;;;21.46;43.70;101593.53;4973523;28;4226;-63
2022/06/02 12:15:07;;;;;;;;;;;;;;;21.40;43.06;101593.19;4952091;28;4193;-63
2022/06/02 12:17:53;;;;;;;;;;;;;;;21.37;42.86;101592.31;4960380;28;4239;-63
2022/06/02 12:20:38;;;;;;;;;;;;;;;21.31;41.79;101598.50;4955282;28;4249;-72
2022/06/02 12:23:07;;;;;;;;;;;;;;;21.52;42.74;101600.34;4955408;28;4218;-64
2022/06/02 12:25:41;;;;;;;;;;;;;;;21.57;41.41;101603.47;4942620;28;4110;-60
2022/06/02 12:28:20;;;;;;;;;;;;;;;21.48;40.80;101600.13;4960917;28;4131;-68
2022/06/02 12:31:13;;;;;;;;;;;;;;;21.38;40.24;101604.59;4953470;28;4430;-62
2022/06/02 12:33:45;;;;;;;;;;;;;;;21.33;39.87;101597.88;4952818;28;4376;-65
2022/06/02 12:39:25;;;;;;;;;;;;;;;21.60;41.65;101597.19;4957555;28;4180;-60
2022/06/02 12:42:15;;;;;;;;;;;;;;;21.66;42.15;101611.16;4960392;28;4268;-60
2022/06/02 12:44:57;;;;;;;;;;;;;;;21.70;42.44;101599.84;4963245;28;4271;-59
2022/06/02 12:47:32;;;;;;;;;;;;;;;21.67;42.97;101599.00;4948976;28;4154;-63
2022/06/02 12:50:11;;;;;;;;;;;;;;;21.71;42.78;101599.19;4962270;28;4193;-63
2022/06/02 12:52:42;;;;;;;;;;;;;;;21.70;42.89;101596.97;4956295;28;4191;-63
2022/06/02 12:55:21;;;;;;;;;;;;;;;21.71;43.30;101596.31;4953117;28;4778;-62
2022/06/02 12:58:11;;;;;;;;;;;;;;;21.71;43.52;101602.06;4957431;28;4321;-60
2022/06/02 13:00:54;;;;;;;;;;;;;;;21.66;43.69;101599.63;4945574;28;5584;-62
2022/06/02 13:03:29;;;;;;;;;;;;;;;21.65;43.70;101604.66;4954680;28;4418;-63
2022/06/02 13:06:14;;;;;;;;;;;;;;;21.66;44.02;101594.59;4955320;28;4033;-60
2022/06/02 13:08:59;;;;;;;;;;;;;;;21.67;44.23;101601.88;4952682;28;4221;-60
2022/06/02 13:11:52;;;;;;;;;;;;;;;21.68;44.46;101600.47;4961826;28;4192;-60
2022/06/02 13:14:21;;;;;;;;;;;;;;;21.70;44.47;101611.38;4964835;28;4164;-61
2022/06/02 13:16:55;;;;;;;;;;;;;;;21.70;44.56;101606.34;4958672;28;4326;-61
2022/06/02 13:19:29;;;;;;;;;;;;;;;21.71;44.37;101599.19;4961515;28;4077;-60
2022/06/02 13:22:04;;;;;;;;;;;;;;;21.58;39.50;101599.94;4954397;28;5244;-62
2022/06/02 13:24:50;;;;;;;;;;;;;;;21.56;40.52;101602.72;4960942;28;4475;-63
2022/06/02 13:27:30;;;;;;;;;;;;;;;21.72;39.49;101609.34;4952285;28;4194;-61
2022/06/02 13:30:26;;;;;;;;;;;;;;;21.88;39.36;101605.81;4956089;28;4307;-60
2022/06/02 13:33:05;;;;;;;;;;;;;;;21.90;38.82;101618.19;4971845;28;5342;-68
2022/06/02 13:35:35;;;;;;;;;;;;;;;21.93;37.96;101616.16;4949051;28;4163;-67
2022/06/02 13:38:20;;;;;;;;;;;;;;;21.80;38.40;101614.03;4953974;28;4090;-64
2022/06/02 13:40:49;;;;;;;;;;;;;;;21.79;38.80;101606.78;4958153;28;4233;-60
2022/06/02 13:43:37;;;;;;;;;;;;;;;21.84;39.20;101608.50;4956960;28;4212;-62
2022/06/02 13:46:22;;;;;;;;;;;;;;;21.82;38.51;101606.22;4957770;28;4304;-62
2022/06/02 13:48:57;;;;;;;;;;;;;;;21.81;38.92;101609.78;4952218;28;5251;-60
2022/06/02 13:51:42;;;;;;;;;;;;;;;21.64;38.73;101603.13;4938644;28;4171;-71